Time;durP1;ratioP1;P1;durP2;ratioP2;P2;SDS_P1;SDS_P2;PMS_P1;PMS_P2;Temp;Humidity;BMP_temperature;BMP_pressure;BME280_temperature;BME280_humidity;BME280_pressure;Samples;Min_cycle;Max_cycle;Signal;HPM_P1;HPM_P2
2022/04/20 00:00:49;;;;;;;4.00;3.50;;;8.40;76.50;;;;;;5053048;28;20477;-93
2022/04/20 00:03:19;;;;;;;3.33;2.90;;;8.30;77.80;;;;;;5001845;28;20473;-90
2022/04/20 00:05:49;;;;;;;5.93;3.77;;;;;;;;;;5048339;28;20513;-88
2022/04/20 00:08:16;;;;;;;4.57;3.40;;;;;;;;;;5053692;28;20455;-86
2022/04/20 00:10:43;;;;;;;6.03;3.40;;;;;;;;;;5052988;28;20938;-89
2022/04/20 00:13:11;;;;;;;4.03;3.63;;;;;;;;;;5053030;28;20457;-89
2022/04/20 00:15:38;;;;;;;4.77;3.40;;;;;;;;;;5053434;28;20446;-90
2022/04/20 00:18:07;;;;;;;3.10;2.80;;;8.20;83.60;;;;;;5052544;28;20450;-90
2022/04/20 00:20:35;;;;;;;4.50;3.77;;;8.10;84.00;;;;;;5053159;28;20442;-88
2022/04/20 00:23:02;;;;;;;4.47;3.90;;;;;;;;;;5053752;28;20803;-89
2022/04/20 00:25:29;;;;;;;5.37;4.00;;;;;;;;;;5053335;28;20497;-89
2022/04/20 00:27:56;;;;;;;6.57;3.83;;;;;;;;;;5053358;28;20459;-91
2022/04/20 00:30:23;;;;;;;4.80;4.30;;;;;;;;;;5048479;28;20445;-90
2022/04/20 00:32:50;;;;;;;4.10;3.80;;;;;;;;;;5052210;28;20458;-89
2022/04/20 00:35:17;;;;;;;4.53;3.70;;;;;;;;;;5053195;28;20454;-88
2022/04/20 00:37:46;;;;;;;6.43;4.50;;;7.80;89.60;;;;;;5053332;28;20804;-90
2022/04/20 00:40:14;;;;;;;4.80;4.30;;;7.50;90.00;;;;;;5053141;28;20548;-90
2022/04/20 00:42:42;;;;;;;4.73;4.33;;;7.60;90.80;;;;;;5049278;28;20450;-89
2022/04/20 00:45:11;;;;;;;4.20;3.80;;;7.60;91.30;;;;;;5053929;28;20581;-89
2022/04/20 00:47:39;;;;;;;6.23;4.30;;;7.60;91.30;;;;;;5056265;28;20469;-89
2022/04/20 00:50:07;;;;;;;4.30;3.90;;;8.20;92.10;;;;;;5052207;28;20465;-89
2022/04/20 00:52:34;;;;;;;4.70;4.10;;;;;;;;;;5057089;28;20465;-89
2022/04/20 00:55:03;;;;;;;5.33;4.30;;;7.30;92.80;;;;;;5054195;28;20450;-90
2022/04/20 00:57:30;;;;;;;4.70;4.13;;;;;;;;;;5056944;28;20433;-90
2022/04/20 01:00:00;;;;;;;5.60;4.37;;;7.20;94.00;;;;;;5056891;28;20450;-90
2022/04/20 01:02:28;;;;;;;5.87;4.20;;;7.20;94.40;;;;;;5056951;28;20442;-89
2022/04/20 01:04:55;;;;;;;5.37;4.50;;;;;;;;;;5051354;28;20496;-90
2022/04/20 01:07:22;;;;;;;5.23;4.30;;;;;;;;;;5053541;28;20821;-90
2022/04/20 01:09:49;;;;;;;10.23;4.20;;;;;;;;;;5052851;28;20468;-90
2022/04/20 01:12:21;;;;;;;5.90;4.03;;;7.00;96.00;;;;;;5056840;28;20462;-89
2022/04/20 01:14:48;;;;;;;4.40;4.00;;;;;;;;;;5053411;28;20446;-89
2022/04/20 01:17:15;;;;;;;5.93;4.67;;;;;;;;;;5056732;28;20461;-89
2022/04/20 01:19:42;;;;;;;6.00;4.33;;;;;;;;;;5055449;28;20454;-89
2022/04/20 01:22:11;;;;;;;4.93;4.43;;;6.70;97.90;;;;;;5056516;28;20809;-90
2022/04/20 01:24:39;;;;;;;5.10;4.60;;;6.70;98.60;;;;;;5021469;28;20447;-89
2022/04/20 01:27:06;;;;;;;5.10;4.60;;;6.40;99.90;;;;;;5056364;28;20489;-89
2022/04/20 01:29:34;;;;;;;4.83;4.20;;;;;;;;;;5056422;28;21109;-89
2022/04/20 01:32:01;;;;;;;4.70;4.30;;;;;;;;;;5056309;28;20446;-89
2022/04/20 01:34:28;;;;;;;4.73;4.10;;;;;;;;;;5055150;28;20965;-89
2022/04/20 01:36:55;;;;;;;7.17;4.60;;;;;;;;;;5056103;28;20451;-89
2022/04/20 01:39:23;;;;;;;4.20;3.80;;;5.90;99.90;;;;;;5052120;28;20794;-88
2022/04/20 01:41:50;;;;;;;5.10;4.33;;;;;;;;;;5056133;28;20442;-89
2022/04/20 01:44:17;;;;;;;4.57;4.17;;;;;;;;;;5056018;28;20478;-89
2022/04/20 01:46:44;;;;;;;6.20;4.53;;;;;;;;;;5056020;28;20493;-89
2022/04/20 01:49:11;;;;;;;13.57;5.60;;;;;;;;;;5055275;28;20450;-89
2022/04/20 01:51:50;;;;;;;4.80;4.33;;;;;;;;;;5055990;28;20950;-88
2022/04/20 01:54:18;;;;;;;4.70;4.17;;;;;;;;;;5051633;28;20524;-90
2022/04/20 01:56:47;;;;;;;4.60;4.20;;;6.50;99.90;;;;;;5055948;28;20439;-90
2022/04/20 01:59:15;;;;;;;5.53;4.27;;;;;;;;;;5052843;28;20954;-90
2022/04/20 02:04:27;;;;;;;4.60;4.20;;;;;;;;;;5054619;28;20437;-89
2022/04/20 02:06:54;;;;;;;4.67;4.27;;;;;;;;;;5055860;28;20486;-89
2022/04/20 02:09:24;;;;;;;6.57;4.43;;;5.30;99.90;;;;;;5052866;28;20446;-89
2022/04/20 02:11:52;;;;;;;4.87;4.33;;;;;;;;;;5055979;28;20442;-89
2022/04/20 02:14:19;;;;;;;5.53;4.83;;;;;;;;;;5055928;28;20449;-89
2022/04/20 02:16:46;;;;;;;4.87;4.40;;;;;;;;;;5055776;28;20449;-90
2022/04/20 02:19:13;;;;;;;5.53;4.50;;;;;;;;;;5061854;28;20443;-89
2022/04/20 02:21:41;;;;;;;4.43;4.00;;;;;;;;;;5080188;28;20454;-89
2022/04/20 02:24:08;;;;;;;5.70;4.10;;;;;;;;;;5055221;28;20457;-90
2022/04/20 02:26:35;;;;;;;5.93;4.23;;;;;;;;;;5047615;28;20494;-89
2022/04/20 02:29:03;;;;;;;4.37;3.97;;;4.70;99.90;;;;;;5055142;28;20450;-88
2022/04/20 02:31:30;;;;;;;4.70;3.83;;;;;;;;;;5055094;28;20451;-89
2022/04/20 02:33:58;;;;;;;4.97;4.57;;;;;;;;;;5054093;28;20454;-89
2022/04/20 02:36:25;;;;;;;4.40;4.00;;;;;;;;;;5054987;28;20802;-89
2022/04/20 02:38:52;;;;;;;5.30;4.40;;;;;;;;;;5054927;28;20795;-89
2022/04/20 02:41:20;;;;;;;9.07;4.63;;;;;;;;;;5051892;28;20446;-90
2022/04/20 02:43:47;;;;;;;5.07;4.57;;;;;;;;;;5054817;28;20473;-90
2022/04/20 02:46:15;;;;;;;5.30;4.80;;;4.50;99.90;;;;;;5050557;28;21224;-89
2022/04/20 02:48:42;;;;;;;5.27;4.17;;;;;;;;;;5053994;28;20446;-88
2022/04/20 02:51:10;;;;;;;7.50;4.50;;;;;;;;;;5054718;28;20450;-89
2022/04/20 02:53:37;;;;;;;5.40;4.43;;;;;;;;;;5049841;28;20434;-90
2022/04/20 02:56:04;;;;;;;4.20;3.80;;;;;;;;;;5054728;28;20450;-89
2022/04/20 02:58:31;;;;;;;4.97;4.17;;;;;;;;;;5050926;28;20438;-88
2022/04/20 03:00:58;;;;;;;4.47;4.07;;;;;;;;;;5054451;28;20490;-89
2022/04/20 03:03:27;;;;;;;4.83;4.33;;;;;;;;;;5053663;28;20442;-89
2022/04/20 03:05:54;;;;;;;4.70;4.27;;;;;;;;;;5053607;28;20497;-88
2022/04/20 03:08:23;;;;;;;5.07;4.50;;;;;;;;;;5051388;28;20483;-88
2022/04/20 03:10:51;;;;;;;5.13;4.70;;;;;;;;;;5054550;28;20942;-88
2022/04/20 03:13:18;;;;;;;6.37;4.97;;;;;;;;;;5054732;28;20454;-89
2022/04/20 03:15:46;;;;;;;5.90;4.53;;;;;;;;;;5054416;28;20461;-88
2022/04/20 03:18:13;;;;;;;7.37;5.10;;;;;;;;;;5053351;28;20446;-88
2022/04/20 03:20:42;;;;;;;4.50;4.10;;;3.80;99.90;;;;;;5051112;28;20445;-89
2022/04/20 03:23:09;;;;;;;6.40;5.30;;;;;;;;;;5048922;28;20453;-88
2022/04/20 03:25:36;;;;;;;6.50;4.20;;;;;;;;;;5054184;28;20474;-89
2022/04/20 03:28:04;;;;;;;4.73;4.33;;;;;;;;;;5050121;28;20451;-90
2022/04/20 03:30:31;;;;;;;10.00;5.03;;;;;;;;;;5049934;28;20470;-89
2022/04/20 03:32:58;;;;;;;6.50;4.10;;;;;;;;;;5053096;28;20450;-89
2022/04/20 03:35:25;;;;;;;5.57;4.47;;;;;;;;;;5053954;28;20457;-89
2022/04/20 03:37:53;;;;;;;5.63;4.40;;;3.50;99.90;;;;;;5053895;28;20517;-88
2022/04/20 03:40:21;;;;;;;4.80;4.20;;;3.50;99.90;;;;;;5054021;28;20454;-89
2022/04/20 03:42:48;;;;;;;5.40;3.77;;;;;;;;;;5053918;28;20974;-89
2022/04/20 03:45:15;;;;;;;5.13;4.13;;;;;;;;;;5053996;28;20454;-89
2022/04/20 03:47:43;;;;;;;4.47;4.07;;;;;;;;;;5052742;28;20497;-88
2022/04/20 03:50:10;;;;;;;7.50;5.10;;;;;;;;;;5053710;28;20447;-89
2022/04/20 03:52:38;;;;;;;7.00;4.80;;;3.40;99.90;;;;;;5050454;28;20508;-89
2022/04/20 03:55:08;;;;;;;4.43;3.90;;;3.40;99.90;;;;;;5047952;28;20446;-88
2022/04/20 03:57:35;;;;;;;5.30;4.80;;;;;;;;;;5050607;28;20443;-88
2022/04/20 04:00:02;;;;;;;5.00;4.50;;;;;;;;;;5049408;28;20458;-88
2022/04/20 04:02:30;;;;;;;5.30;4.70;;;;;;;;;;5053511;28;20453;-88
2022/04/20 04:04:57;;;;;;;5.00;4.10;;;;;;;;;;5052627;28;20447;-88
2022/04/20 04:07:24;;;;;;;5.27;4.50;;;;;;;;;;5053743;28;20498;-88
2022/04/20 04:09:51;;;;;;;4.93;4.43;;;;;;;;;;5050492;28;20496;-90
2022/04/20 04:12:24;;;;;;;5.80;4.53;;;3.20;99.90;;;;;;5053463;28;20454;-88
2022/04/20 04:14:51;;;;;;;5.80;4.53;;;;;;;;;;5053540;28;20447;-88
2022/04/20 04:17:18;;;;;;;6.87;4.57;;;;;;;;;;5050339;28;20450;-89
2022/04/20 04:19:46;;;;;;;5.83;4.50;;;;;;;;;;5052399;28;20446;-90
2022/04/20 04:22:13;;;;;;;4.40;4.00;;;;;;;;;;5053478;28;20866;-88
2022/04/20 04:24:40;;;;;;;4.80;4.13;;;;;;;;;;5053260;28;20508;-88
2022/04/20 04:27:09;;;;;;;6.33;4.97;;;3.00;99.90;;;;;;5053173;28;20485;-88
2022/04/20 04:29:39;;;;;;;4.40;4.00;;;3.00;99.90;;;;;;5052945;28;20449;-89
2022/04/20 04:32:06;;;;;;;4.87;4.37;;;3.00;99.90;;;;;;5053295;28;20462;-88
2022/04/20 04:34:34;;;;;;;7.43;4.30;;;;;;;;;;5052253;28;20465;-89
2022/04/20 04:37:01;;;;;;;5.67;4.40;;;;;;;;;;5050135;28;20945;-89
2022/04/20 04:39:29;;;;;;;5.03;4.53;;;;;;;;;;5053178;28;20454;-89
2022/04/20 04:42:00;;;;;;;4.30;3.70;;;;;;;;;;5048226;28;20446;-88
2022/04/20 04:44:27;;;;;;;5.47;4.50;;;;;;;;;;5052864;28;20954;-89
2022/04/20 04:49:41;;;;;;;6.00;4.20;;;;;;;;;;5051994;28;20952;-89
2022/04/20 04:52:11;;;;;;;5.17;4.37;;;;;;;;;;5052885;28;20447;-89
2022/04/20 04:54:39;;;;;;;3.93;3.53;;;;;;;;;;5052940;28;20458;-89
2022/04/20 04:57:07;;;;;;;4.50;4.10;;;;;;;;;;5048752;28;20830;-89
2022/04/20 04:59:34;;;;;;;7.20;3.83;;;;;;;;;;5052818;28;20459;-90
2022/04/20 05:02:03;;;;;;;5.00;4.30;;;3.10;99.90;;;;;;5048028;28;20474;-88
2022/04/20 05:04:30;;;;;;;9.60;3.97;;;;;;;;;;5048716;28;20439;-89
2022/04/20 05:06:58;;;;;;;5.23;3.97;;;;;;;;;;5052917;28;20489;-89
2022/04/20 05:09:25;;;;;;;5.50;4.90;;;;;;;;;;5048189;28;20453;-89
2022/04/20 05:11:52;;;;;;;7.93;4.77;;;;;;;;;;5053059;28;20964;-89
2022/04/20 05:14:19;;;;;;;5.30;4.80;;;;;;;;;;5052889;28;20450;-88
2022/04/20 05:16:47;;;;;;;9.37;4.93;;;;;;;;;;5052794;28;20450;-90
2022/04/20 05:19:15;;;;;;;6.70;4.77;;;3.90;99.90;;;;;;5051817;28;20438;-88
2022/04/20 05:21:43;;;;;;;7.30;5.10;;;;;;;;;;5049393;28;20446;-89
2022/04/20 05:24:10;;;;;;;7.50;4.90;;;;;;;;;;5052747;28;20497;-89
2022/04/20 05:26:38;;;;;;;6.10;4.50;;;;;;;;;;5052494;28;20881;-88
2022/04/20 05:29:06;;;;;;;8.40;5.97;;;;;;;;;;5053262;28;20520;-88
2022/04/20 05:31:33;;;;;;;7.70;4.87;;;;;;;;;;5048819;28;20540;-88
2022/04/20 05:34:00;;;;;;;6.90;4.83;;;;;;;;;;5054975;28;20801;-89
2022/04/20 05:41:39;;;;;;;5.50;5.00;;;5.50;99.90;;;;;;5055928;28;20454;-89
2022/04/20 05:42:01;;;;;;;5.13;4.37;;;;;;;;;;5056179;28;20449;-90
2022/04/20 05:44:28;;;;;;;5.10;4.60;;;;;;;;;;5056134;28;20621;-88
2022/04/20 05:46:55;;;;;;;6.53;4.53;;;;;;;;;;5055779;28;20505;-89
2022/04/20 05:49:22;;;;;;;7.30;4.97;;;;;;;;;;5054651;28;20439;-89
2022/04/20 05:51:51;;;;;;;6.03;4.40;;;7.50;99.90;;;;;;5055755;28;20447;-89
2022/04/20 05:54:18;;;;;;;5.13;4.40;;;;;;;;;;5052609;28;20937;-89
2022/04/20 05:56:45;;;;;;;7.17;4.20;;;;;;;;;;5055692;28;20449;-90
2022/04/20 05:59:12;;;;;;;6.20;3.60;;;;;;;;;;5055646;28;20446;-89
2022/04/20 06:01:39;;;;;;;4.90;4.40;;;;;;;;;;5055093;28;20479;-88
2022/04/20 06:04:07;;;;;;;4.50;4.10;;;;;;;;;;5034311;28;20976;-91
2022/04/20 06:06:34;;;;;;;5.33;3.90;;;;;;;;;;5055354;28;20490;-88
2022/04/20 06:09:02;;;;;;;5.73;3.90;;;8.40;98.50;;;;;;5055247;28;20451;-89
2022/04/20 06:11:37;;;;;;;7.53;4.20;;;8.00;98.10;;;;;;5055664;28;20826;-89
2022/04/20 06:14:13;;;;;;;7.37;4.10;;;8.40;97.60;;;;;;5056653;28;20954;-90
2022/04/20 06:16:41;;;;;;;4.67;3.87;;;;;;;;;;5055595;28;20800;-90
2022/04/20 06:19:08;;;;;;;5.30;4.57;;;;;;;;;;5051176;28;20442;-89
2022/04/20 06:21:35;;;;;;;6.00;3.90;;;;;;;;;;5060958;28;20443;-91
2022/04/20 06:24:03;;;;;;;3.63;3.33;;;9.50;91.60;;;;;;5056042;28;20455;-90
2022/04/20 06:26:30;;;;;;;3.80;3.40;;;;;;;;;;5055828;28;20446;-88
2022/04/20 06:28:58;;;;;;;3.50;3.20;;;;;;;;;;5055189;28;20451;-93
2022/04/20 06:31:25;;;;;;;3.50;3.20;;;;;;;;;;5055567;28;20953;-95
2022/04/20 06:33:57;;;;;;;3.23;3.00;;;;;;;;;;5057571;28;20438;-90
2022/04/20 06:36:25;;;;;;;5.40;3.60;;;;;;;;;;5051205;28;20485;-89
2022/04/20 06:38:52;;;;;;;3.40;2.43;;;;;;;;;;5055653;28;20505;-93
2022/04/20 06:41:20;;;;;;;3.20;2.90;;;9.10;91.70;;;;;;5054801;28;20458;-93
2022/04/20 06:43:48;;;;;;;4.27;3.40;;;;;;;;;;5047724;28;20958;-91
2022/04/20 06:46:15;;;;;;;3.40;3.10;;;;;;;;;;5052241;28;20447;-91
2022/04/20 06:48:42;;;;;;;3.80;3.40;;;;;;;;;;5054188;28;20513;-92
2022/04/20 06:51:09;;;;;;;4.03;3.20;;;;;;;;;;5052146;28;20862;-89
2022/04/20 06:59:07;;;;;;;3.93;3.40;;;;;;;;;;5054705;28;20516;-88
2022/04/20 07:01:38;;;;;;;3.10;2.80;;;10.30;90.60;;;;;;5053355;28;20479;-89
2022/04/20 07:04:06;;;;;;;5.47;3.70;;;;;;;;;;5050423;28;20465;-89
2022/04/20 07:06:33;;;;;;;3.97;3.53;;;;;;;;;;5054676;28;20446;-88
2022/04/20 07:09:02;;;;;;;5.37;3.83;;;;;;;;;;5054972;28;20451;-91
2022/04/20 07:11:31;;;;;;;5.63;3.30;;;9.90;89.40;;;;;;5053895;28;20542;-88
2022/04/20 07:13:58;;;;;;;4.30;3.13;;;;;;;;;;5055330;28;20952;-91
2022/04/20 07:16:27;;;;;;;3.20;2.70;;;;;;;;;;5055996;28;20462;-93
2022/04/20 07:18:54;;;;;;;3.30;3.00;;;;;;;;;;5053872;28;20542;-91
2022/04/20 07:21:21;;;;;;;4.17;3.20;;;;;;;;;;5055322;28;20965;-90
2022/04/20 07:23:48;;;;;;;3.10;2.80;;;;;;;;;;5055008;28;20785;-90
2022/04/20 07:26:15;;;;;;;4.67;3.70;;;;;;;;;;5054328;28;20461;-88
2022/04/20 07:28:44;;;;;;;4.50;3.57;;;10.80;89.60;;;;;;5054011;28;20862;-91
2022/04/20 07:31:11;;;;;;;4.07;3.40;;;;;;;;;;5055625;28;20458;-90
2022/04/20 07:33:38;;;;;;;6.70;4.00;;;;;;;;;;5053998;28;20930;-91
2022/04/20 07:36:05;;;;;;;4.00;3.53;;;;;;;;;;5054344;28;20453;-91
2022/04/20 07:38:32;;;;;;;4.53;3.63;;;;;;;;;;5053029;28;20869;-91
2022/04/20 07:41:00;;;;;;;4.07;3.60;;;;;;;;;;5054267;28;20462;-91
2022/04/20 07:43:27;;;;;;;8.53;4.33;;;;;;;;;;5054189;28;20442;-88
2022/04/20 07:45:55;;;;;;;4.70;3.90;;;;;;;;;;5055373;28;20933;-92
2022/04/20 07:48:22;;;;;;;3.90;3.50;;;;;;;;;;5053799;28;20881;-89
2022/04/20 07:50:49;;;;;;;3.87;3.57;;;;;;;;;;5054417;28;20637;-91
2022/04/20 07:53:17;;;;;;;6.10;4.77;;;;;;;;;;5049731;28;20950;-89
2022/04/20 07:55:46;;;;;;;3.70;3.40;;;;;;;;;;5055057;28;20447;-89
2022/04/20 07:58:14;;;;;;;4.40;3.50;;;;;;;;;;5058479;28;20461;-94
2022/04/20 08:00:41;;;;;;;3.93;3.63;;;;;;;;;;5055385;28;20845;-93
2022/04/20 08:03:11;;;;;;;3.80;3.50;;;11.40;98.90;;;;;;5054958;28;20446;-88
2022/04/20 08:05:39;;;;;;;3.90;3.60;;;;;;;;;;5048062;28;20541;-84
2022/04/20 08:08:06;;;;;;;5.20;3.70;;;12.20;81.60;;;;;;5038264;28;20490;-84
2022/04/20 08:10:33;;;;;;;4.37;3.97;;;;;;;;;;5034126;28;20459;-83
2022/04/20 08:14:09;;;;;;;3.97;3.57;;;;;;;;;;5052952;28;20473;-83
2022/04/20 08:15:48;;;;;;;3.97;3.57;;;;;;;;;;5052748;28;20826;-87
2022/04/20 08:18:16;;;;;;;4.63;4.23;;;11.70;79.90;;;;;;5051981;28;20474;-83
2022/04/20 08:20:44;;;;;;;4.30;3.90;;;11.50;79.90;;;;;;5052980;28;20451;-83
2022/04/20 08:23:11;;;;;;;4.30;3.70;;;;;;;;;;5047649;28;20443;-83
2022/04/20 08:25:39;;;;;;;3.50;3.03;;;;;;;;;;5032778;28;20451;-85
2022/04/20 08:28:06;;;;;;;4.23;3.90;;;12.10;96.90;;;;;;5032695;28;20905;-84
2022/04/20 08:30:33;;;;;;;4.50;4.10;;;;;;;;;;5032800;28;20482;-84
2022/04/20 08:33:00;;;;;;;12.10;4.20;;;;;;;;;;5031728;28;20447;-84
2022/04/20 08:35:31;;;;;;;4.17;3.77;;;;;;;;;;5032813;28;20451;-83
2022/04/20 08:37:58;;;;;;;4.30;3.90;;;;;;;;;;5032673;28;21010;-82
2022/04/20 08:40:26;;;;;;;4.13;3.83;;;;;;;;;;5043902;28;20530;-82
2022/04/20 08:42:56;;;;;;;6.97;4.20;;;;;;;;;;5052314;28;20458;-83
2022/04/20 08:45:24;;;;;;;4.37;4.07;;;;;;;;;;5052606;28;20458;-83
2022/04/20 08:47:51;;;;;;;4.80;4.40;;;14.60;72.00;;;;;;5051326;28;20490;-83
2022/04/20 08:50:18;;;;;;;4.10;3.80;;;;;;;;;;5035865;28;21056;-87
2022/04/20 08:52:50;;;;;;;4.50;4.10;;;12.70;74.30;;;;;;5032830;28;20640;-84
2022/04/20 08:55:19;;;;;;;4.00;3.70;;;13.20;93.60;;;;;;5039267;28;20550;-85
2022/04/20 08:57:47;;;;;;;4.50;4.10;;;14.40;71.90;;;;;;5044068;28;20452;-84
2022/04/20 09:00:20;;;;;;;4.13;3.77;;;14.70;97.50;;;;;;5032103;28;20475;-82
2022/04/20 09:02:49;;;;;;;4.80;4.10;;;;;;;;;;5031191;28;20455;-83
2022/04/20 09:05:16;;;;;;;5.20;4.23;;;;;;;;;;5035637;28;20494;-84
2022/04/20 09:07:43;;;;;;;3.67;3.37;;;;;;;;;;5035739;28;20593;-84
2022/04/20 09:10:12;;;;;;;4.00;3.60;;;14.80;67.90;;;;;;5039591;28;20486;-84
2022/04/20 09:12:42;;;;;;;3.17;2.83;;;14.00;68.80;;;;;;5036293;28;20490;-84
2022/04/20 09:15:10;;;;;;;3.43;3.13;;;13.90;96.00;;;;;;5036037;28;20537;-84
2022/04/20 09:17:42;;;;;;;5.27;3.37;;;13.00;69.50;;;;;;5035282;28;20957;-84
2022/04/20 09:20:12;;;;;;;4.30;3.90;;;13.90;91.80;;;;;;5035066;28;20455;-83
2022/04/20 09:22:39;;;;;;;4.03;3.60;;;;;;;;;;5046104;28;21112;-83
2022/04/20 09:25:08;;;;;;;4.07;3.67;;;15.00;66.30;;;;;;5035782;28;20786;-85
2022/04/20 09:27:39;;;;;;;4.30;3.40;;;15.40;66.70;;;;;;5035656;28;20490;-83
2022/04/20 09:30:10;;;;;;;3.70;3.40;;;15.30;91.20;;;;;;5035557;28;20443;-83
2022/04/20 09:32:38;;;;;;;4.57;3.80;;;16.00;65.00;;;;;;5035227;28;20451;-85
2022/04/20 09:35:10;;;;;;;4.17;3.77;;;15.80;90.10;;;;;;5035201;28;20443;-83
2022/04/20 09:37:38;;;;;;;3.70;3.40;;;16.70;95.70;;;;;;5035468;28;20814;-84
2022/04/20 09:40:11;;;;;;;3.73;3.00;;;16.90;91.40;;;;;;5035575;28;20807;-84
2022/04/20 09:42:39;;;;;;;3.80;3.50;;;17.10;62.40;;;;;;5035297;28;20471;-84
2022/04/20 09:45:08;;;;;;;3.57;3.27;;;16.60;66.50;;;;;;5035238;28;20451;-86
2022/04/20 09:50:24;;;;;;;3.93;3.63;;;16.80;62.40;;;;;;5035399;28;20929;-88
2022/04/20 09:52:55;;;;;;;3.60;3.30;;;16.90;58.80;;;;;;5035256;28;20452;-88
2022/04/20 09:55:30;;;;;;;3.50;3.20;;;16.80;89.70;;;;;;5036529;28;20490;-87
2022/04/20 09:58:17;;;;;;;4.47;3.10;;;16.70;59.60;;;;;;5035138;28;20443;-88
2022/04/20 10:00:47;;;;;;;3.50;3.10;;;16.40;58.50;;;;;;5034672;28;20883;-86
2022/04/20 10:03:33;;;;;;;4.87;4.37;;;;;;;;;;5032802;28;20963;-88
2022/04/20 10:06:02;;;;;;;4.70;3.43;;;16.90;58.70;;;;;;5035097;28;20872;-87
2022/04/20 10:08:29;;;;;;;3.57;3.27;;;;;;;;;;5034651;28;20586;-88
2022/04/20 10:10:57;;;;;;;3.23;2.93;;;;;;;;;;5035202;28;20509;-88
2022/04/20 10:13:28;;;;;;;4.13;3.33;;;16.50;58.40;;;;;;5032235;28;20447;-88
2022/04/20 10:16:07;;;;;;;3.60;3.30;;;;;;;;;;5048332;28;20446;-86
2022/04/20 10:18:37;;;;;;;3.47;3.17;;;17.00;58.60;;;;;;5033977;28;20450;-88
2022/04/20 10:21:06;;;;;;;3.30;3.00;;;16.20;59.10;;;;;;5035501;28;20459;-85
2022/04/20 10:23:34;;;;;;;3.60;2.97;;;;;;;;;;5032264;28;20447;-91
2022/04/20 10:26:07;;;;;;;4.90;3.33;;;17.00;60.60;;;;;;5035218;28;20509;-88
2022/04/20 10:28:42;;;;;;;3.30;3.00;;;16.30;56.60;;;;;;5035379;28;20497;-87
2022/04/20 10:31:20;;;;;;;3.13;2.70;;;17.50;61.10;;;;;;5034518;28;20451;-88
2022/04/20 10:34:13;;;;;;;;;;;;;;;;;;;;;
2022/04/20 10:36:41;;;;;;;3.47;2.77;;;;;;;;;;5032151;28;20437;-87
2022/04/20 10:39:22;;;;;;;3.60;2.93;;;16.90;54.00;;;;;;5034385;28;21265;-88
2022/04/20 10:42:20;;;;;;;4.20;3.27;;;16.90;55.60;;;;;;5034341;28;20967;-88
2022/04/20 10:45:06;;;;;;;3.70;2.90;;;17.10;54.60;;;;;;5024937;28;20448;-88
2022/04/20 10:47:35;;;;;;;3.10;2.80;;;18.30;57.50;;;;;;5030282;28;20466;-88
2022/04/20 10:50:17;;;;;;;5.83;3.20;;;16.30;53.40;;;;;;5034288;28;20833;-89
2022/04/20 10:52:48;;;;;;;3.63;2.90;;;17.10;55.90;;;;;;5034986;28;20801;-89
2022/04/20 10:55:15;;;;;;;3.40;3.20;;;;;;;;;;5034633;28;20439;-90
2022/04/20 10:57:45;;;;;;;2.83;2.63;;;18.00;55.50;;;;;;5036098;28;20446;-89
2022/04/20 11:00:28;;;;;;;3.47;3.20;;;16.70;54.00;;;;;;5054723;28;20908;-89
2022/04/20 11:02:55;;;;;;;3.30;3.00;;;;;;;;;;5048669;28;20511;-89
2022/04/20 11:05:23;;;;;;;4.30;3.90;;;16.40;53.90;;;;;;5054077;28;20454;-92
2022/04/20 11:08:05;;;;;;;5.23;3.53;;;16.50;54.60;;;;;;5054112;28;20449;-89
2022/04/20 11:10:32;;;;;;;3.23;2.93;;;;;;;;;;5051314;28;20454;-91
2022/04/20 11:19:05;;;;;;;2.83;2.63;;;17.70;84.60;;;;;;5053036;28;20487;-88
2022/04/20 11:21:32;;;;;;;3.93;3.07;;;17.40;53.80;;;;;;5053817;28;20549;-88
2022/04/20 11:24:05;;;;;;;3.60;3.30;;;17.50;54.20;;;;;;5053850;28;20454;-86
2022/04/20 11:26:34;;;;;;;3.60;3.30;;;17.30;51.30;;;;;;5053253;28;20482;-87
2022/04/20 11:29:08;;;;;;;3.23;3.00;;;17.20;53.90;;;;;;5053649;28;20490;-88
2022/04/20 11:31:37;;;;;;;2.90;2.60;;;17.00;52.40;;;;;;5053785;28;20865;-88
2022/04/20 11:34:05;;;;;;;3.00;2.67;;;;;;;;;;5052814;28;20469;-89
2022/04/20 11:36:32;;;;;;;3.63;3.33;;;;;;;;;;5050607;28;20942;-88
2022/04/20 11:38:59;;;;;;;4.80;2.93;;;;;;;;;;5053678;28;20443;-85
2022/04/20 11:41:27;;;;;;;3.43;3.10;;;;;;;;;;5053624;28;20470;-86
2022/04/20 11:43:54;;;;;;;3.30;3.00;;;;;;;;;;5053871;28;20516;-89
2022/04/20 11:46:21;;;;;;;3.73;2.90;;;;;;;;;;5052333;28;20541;-88
2022/04/20 11:48:55;;;;;;;3.83;3.13;;;17.10;51.00;;;;;;5052982;28;20517;-87
2022/04/20 11:51:25;;;;;;;3.97;2.83;;;16.40;52.30;;;;;;5053554;28;20454;-89
2022/04/20 11:53:53;;;;;;;3.50;3.20;;;15.70;52.90;;;;;;5054226;28;20454;-88
2022/04/20 11:56:33;;;;;;;6.00;2.97;;;15.20;54.20;;;;;;5052583;28;20458;-88
2022/04/20 11:59:00;;;;;;;3.20;2.97;;;;;;;;;;5055379;28;20442;-88
2022/04/20 12:01:30;;;;;;;3.63;3.33;;;16.70;55.70;;;;;;5053443;28;20502;-89
2022/04/20 12:04:00;;;;;;;4.33;3.00;;;17.90;55.10;;;;;;5052968;28;20450;-88
2022/04/20 12:06:28;;;;;;;4.53;3.40;;;;;;;;;;5055617;28;20446;-89
2022/04/20 12:08:55;;;;;;;3.93;3.07;;;;;;;;;;5054539;28;20506;-93
2022/04/20 12:11:23;;;;;;;5.40;3.37;;;;;;;;;;5054456;28;20431;-90
2022/04/20 12:13:56;;;;;;;2.80;2.60;;;15.50;52.60;;;;;;5051948;28;20459;-93
2022/04/20 12:16:24;;;;;;;4.07;3.77;;;;;;;;;;5055651;28;20455;-92
2022/04/20 12:18:51;;;;;;;3.20;3.00;;;;;;;;;;5044890;28;20461;-93
2022/04/20 12:21:41;;;;;;;4.70;3.60;;;16.00;53.20;;;;;;5052154;28;20516;-90
2022/04/20 12:24:10;;;;;;;4.40;4.00;;;16.10;58.30;;;;;;5054016;28;20454;-89
2022/04/20 12:26:42;;;;;;;4.73;4.23;;;16.20;51.70;;;;;;5050129;28;20453;-92
2022/04/20 12:29:10;;;;;;;4.23;3.90;;;;;;;;;;5050345;28;20482;-87
2022/04/20 12:31:41;;;;;;;3.63;3.27;;;17.20;53.80;;;;;;5053496;28;20512;-89
2022/04/20 12:34:10;;;;;;;4.00;3.10;;;16.00;51.10;;;;;;5052489;28;20450;-90
2022/04/20 12:36:53;;;;;;;3.67;3.37;;;16.50;52.10;;;;;;5052913;28;20446;-91
2022/04/20 12:39:26;;;;;;;4.00;3.53;;;17.20;53.40;;;;;;5052804;28;20458;-88
2022/04/20 12:41:54;;;;;;;3.70;3.40;;;17.80;51.40;;;;;;5056843;28;20883;-90
2022/04/20 12:44:36;;;;;;;3.60;3.30;;;16.90;50.70;;;;;;5057269;28;20953;-91
2022/04/20 12:47:04;;;;;;;4.13;3.73;;;;;;;;;;5054040;28;20462;-88
2022/04/20 12:49:32;;;;;;;3.60;3.10;;;17.10;85.20;;;;;;5056574;28;20490;-90
2022/04/20 12:52:08;;;;;;;4.73;3.73;;;16.00;51.50;;;;;;5058335;28;20454;-90
2022/04/20 12:54:35;;;;;;;4.43;3.63;;;;;;;;;;5059254;28;20499;-89
2022/04/20 13:02:32;;;;;;;4.90;3.40;;;;;;;;;;5069421;28;20426;-89
2022/04/20 13:04:59;;;;;;;3.07;2.87;;;;;;;;;;5060208;28;20446;-86
2022/04/20 13:07:27;;;;;;;4.80;3.10;;;17.00;48.70;;;;;;5059007;28;20459;-91
2022/04/20 13:09:55;;;;;;;4.17;3.60;;;16.30;49.70;;;;;;5059982;28;20497;-94
2022/04/20 13:12:22;;;;;;;4.30;3.30;;;;;;;;;;5009785;28;20458;-89
2022/04/20 13:14:49;;;;;;;6.03;3.60;;;;;;;;;;5058532;28;20485;-89
2022/04/20 13:17:16;;;;;;;4.10;3.50;;;;;;;;;;5058199;28;20430;-89
2022/04/20 13:19:43;;;;;;;4.00;3.20;;;;;;;;;;5056131;28;20453;-91
2022/04/20 13:22:10;;;;;;;3.30;3.07;;;;;;;;;;5056878;28;20450;-88
2022/04/20 13:30:10;;;;;;;4.13;3.53;;;16.70;48.80;;;;;;5054451;28;20496;-92
2022/04/20 13:32:37;;;;;;;4.10;3.10;;;;;;;;;;5036903;28;20455;-87
2022/04/20 13:35:04;;;;;;;3.50;3.20;;;;;;;;;;5036923;28;20467;-89
2022/04/20 13:37:31;;;;;;;2.60;2.40;;;;;;;;;;5035133;28;20514;-90
2022/04/20 13:40:00;;;;;;;2.53;2.27;;;16.90;49.60;;;;;;5037736;28;20435;-90
2022/04/20 13:42:27;;;;;;;2.67;2.47;;;;;;;;;;5037786;28;20447;-92
2022/04/20 13:44:54;;;;;;;3.97;3.10;;;;;;;;;;5037079;28;20451;-89
2022/04/20 13:47:22;;;;;;;3.43;2.90;;;;;;;;;;5053661;28;20452;-89
2022/04/20 13:49:49;;;;;;;3.93;2.70;;;;;;;;;;5052133;28;20485;-90
2022/04/20 13:52:16;;;;;;;5.10;3.37;;;;;;;;;;5039161;28;20444;-90
2022/04/20 13:54:43;;;;;;;6.03;2.67;;;;;;;;;;5036517;28;21074;-91
2022/04/20 13:57:11;;;;;;;2.57;2.37;;;17.50;51.10;;;;;;5036925;28;20798;-93
2022/04/20 13:59:39;;;;;;;6.93;2.90;;;;;;;;;;5037460;28;20435;-92
2022/04/20 14:02:06;;;;;;;3.40;2.60;;;;;;;;;;5036861;28;21001;-92
2022/04/20 14:04:33;;;;;;;2.97;2.77;;;;;;;;;;5048857;28;20950;-89
2022/04/20 14:07:01;;;;;;;2.90;2.57;;;;;;;;;;5053264;28;20449;-94
2022/04/20 14:09:28;;;;;;;2.40;2.20;;;;;;;;;;5052817;28;21009;-93
2022/04/20 14:11:55;;;;;;;9.43;4.60;;;;;;;;;;5056444;28;20454;-90
2022/04/20 14:14:23;;;;;;;2.90;2.60;;;;;;;;;;5053704;28;20481;-89
2022/04/20 14:16:50;;;;;;;3.70;2.53;;;;;;;;;;5057133;28;20457;-89
2022/04/20 14:19:18;;;;;;;5.83;2.60;;;;;;;;;;5057786;28;20969;-89
2022/04/20 14:21:45;;;;;;;4.40;2.70;;;;;;;;;;5059622;28;20454;-88
2022/04/20 14:24:12;;;;;;;2.80;2.60;;;;;;;;;;5057542;28;20454;-90
2022/04/20 14:32:13;;;;;;;4.40;2.47;;;;;;;;;;5056033;28;20458;-87
2022/04/20 14:34:41;;;;;;;2.77;2.57;;;18.20;48.80;;;;;;5056030;28;20505;-87
2022/04/20 14:37:09;;;;;;;2.80;2.60;;;;;;;;;;5055646;28;20911;-90
2022/04/20 14:39:36;;;;;;;4.43;2.93;;;18.30;43.80;;;;;;5049857;28;20451;-88
2022/04/20 14:42:05;;;;;;;4.73;2.63;;;18.00;46.50;;;;;;5035811;28;20471;-89
2022/04/20 14:44:35;;;;;;;2.87;2.67;;;17.50;45.80;;;;;;5029816;28;20455;-90
2022/04/20 14:47:03;;;;;;;3.80;3.13;;;18.20;43.80;;;;;;5033016;28;20456;-88